sensor_id;sensor_type;location;lat;lon;timestamp;temperature;humidity
9527;DHT22;4802;51.494;6.770;2022-07-22T00:01:39;20.00;99.90
9527;DHT22;4802;51.494;6.770;2022-07-22T00:04:08;20.00;99.90
9527;DHT22;4802;51.494;6.770;2022-07-22T00:06:37;19.90;99.90
9527;DHT22;4802;51.494;6.770;2022-07-22T00:09:07;20.00;99.90
9527;DHT22;4802;51.494;6.770;2022-07-22T00:11:36;19.90;99.90
9527;DHT22;4802;51.494;6.770;2022-07-22T00:14:07;19.90;99.90
9527;DHT22;4802;51.494;6.770;2022-07-22T00:16:36;19.90;99.90
9527;DHT22;4802;51.494;6.770;2022-07-22T00:19:05;20.00;99.90
9527;DHT22;4802;51.494;6.770;2022-07-22T00:21:35;20.00;99.90
9527;DHT22;4802;51.494;6.770;2022-07-22T00:24:04;19.80;99.90
9527;DHT22;4802;51.494;6.770;2022-07-22T00:26:34;20.10;99.90
9527;DHT22;4802;51.494;6.770;2022-07-22T00:29:03;20.00;99.90
9527;DHT22;4802;51.494;6.770;2022-07-22T00:31:34;20.20;99.90
9527;DHT22;4802;51.494;6.770;2022-07-22T00:34:04;20.00;99.90
9527;DHT22;4802;51.494;6.770;2022-07-22T00:36:33;19.90;99.90
9527;DHT22;4802;51.494;6.770;2022-07-22T00:39:03;19.80;99.90
9527;DHT22;4802;51.494;6.770;2022-07-22T00:41:32;19.70;99.90
9527;DHT22;4802;51.494;6.770;2022-07-22T00:44:05;19.80;99.90
9527;DHT22;4802;51.494;6.770;2022-07-22T00:46:40;19.70;99.90
9527;DHT22;4802;51.494;6.770;2022-07-22T00:49:09;19.60;99.90
9527;DHT22;4802;51.494;6.770;2022-07-22T00:51:38;19.60;99.90
9527;DHT22;4802;51.494;6.770;2022-07-22T00:54:08;19.60;99.90
9527;DHT22;4802;51.494;6.770;2022-07-22T00:56:37;19.50;99.90
9527;DHT22;4802;51.494;6.770;2022-07-22T00:59:10;19.60;99.90
9527;DHT22;4802;51.494;6.770;2022-07-22T01:01:44;19.70;99.90
9527;DHT22;4802;51.494;6.770;2022-07-22T01:04:13;19.80;99.90
9527;DHT22;4802;51.494;6.770;2022-07-22T01:06:42;19.70;99.90
9527;DHT22;4802;51.494;6.770;2022-07-22T01:09:13;19.60;99.90
9527;DHT22;4802;51.494;6.770;2022-07-22T01:11:42;19.50;99.90
9527;DHT22;4802;51.494;6.770;2022-07-22T01:14:13;19.50;99.90
9527;DHT22;4802;51.494;6.770;2022-07-22T01:16:44;19.60;99.90
9527;DHT22;4802;51.494;6.770;2022-07-22T01:19:16;19.60;99.90
9527;DHT22;4802;51.494;6.770;2022-07-22T01:21:47;19.50;99.90
9527;DHT22;4802;51.494;6.770;2022-07-22T01:24:16;19.60;99.90
9527;DHT22;4802;51.494;6.770;2022-07-22T01:26:45;19.40;99.90
9527;DHT22;4802;51.494;6.770;2022-07-22T01:29:15;19.40;99.90
9527;DHT22;4802;51.494;6.770;2022-07-22T01:31:47;19.30;99.90
9527;DHT22;4802;51.494;6.770;2022-07-22T01:34:20;19.40;99.90
9527;DHT22;4802;51.494;6.770;2022-07-22T01:36:51;19.20;99.90
9527;DHT22;4802;51.494;6.770;2022-07-22T01:39:21;19.30;99.90
9527;DHT22;4802;51.494;6.770;2022-07-22T01:41:50;19.30;99.90
9527;DHT22;4802;51.494;6.770;2022-07-22T01:44:19;19.20;99.90
9527;DHT22;4802;51.494;6.770;2022-07-22T01:46:48;19.30;99.90
9527;DHT22;4802;51.494;6.770;2022-07-22T01:49:18;19.30;99.90
9527;DHT22;4802;51.494;6.770;2022-07-22T01:51:48;19.30;99.90
9527;DHT22;4802;51.494;6.770;2022-07-22T01:54:19;19.40;99.90
9527;DHT22;4802;51.494;6.770;2022-07-22T01:56:50;19.40;99.90
9527;DHT22;4802;51.494;6.770;2022-07-22T01:59:21;19.60;98.90
9527;DHT22;4802;51.494;6.770;2022-07-22T02:01:50;19.50;99.90
9527;DHT22;4802;51.494;6.770;2022-07-22T02:04:19;19.50;99.90
9527;DHT22;4802;51.494;6.770;2022-07-22T02:06:53;19.50;98.90
9527;DHT22;4802;51.494;6.770;2022-07-22T02:09:24;19.40;99.90
9527;DHT22;4802;51.494;6.770;2022-07-22T02:11:53;19.40;99.90
9527;DHT22;4802;51.494;6.770;2022-07-22T02:14:22;19.50;99.90
9527;DHT22;4802;51.494;6.770;2022-07-22T02:16:51;19.50;99.90
9527;DHT22;4802;51.494;6.770;2022-07-22T02:19:21;19.50;96.60
9527;DHT22;4802;51.494;6.770;2022-07-22T02:21:50;19.80;82.80
9527;DHT22;4802;51.494;6.770;2022-07-22T02:24:19;19.50;99.90
9527;DHT22;4802;51.494;6.770;2022-07-22T02:26:50;19.50;99.90
9527;DHT22;4802;51.494;6.770;2022-07-22T02:29:19;19.60;96.60
9527;DHT22;4802;51.494;6.770;2022-07-22T02:31:49;19.60;88.20
9527;DHT22;4802;51.494;6.770;2022-07-22T02:34:19;19.40;57.80
9527;DHT22;4802;51.494;6.770;2022-07-22T02:36:48;19.40;98.30
9527;DHT22;4802;51.494;6.770;2022-07-22T02:39:17;19.40;90.90
9527;DHT22;4802;51.494;6.770;2022-07-22T02:41:46;19.30;94.70
9527;DHT22;4802;51.494;6.770;2022-07-22T02:44:17;19.20;99.90
9527;DHT22;4802;51.494;6.770;2022-07-22T02:46:46;19.00;99.90
9527;DHT22;4802;51.494;6.770;2022-07-22T02:49:15;19.00;99.90
9527;DHT22;4802;51.494;6.770;2022-07-22T02:51:44;19.00;99.90
9527;DHT22;4802;51.494;6.770;2022-07-22T02:54:13;19.10;99.90
9527;DHT22;4802;51.494;6.770;2022-07-22T02:56:42;18.90;99.90
9527;DHT22;4802;51.494;6.770;2022-07-22T02:59:11;18.90;99.90
9527;DHT22;4802;51.494;6.770;2022-07-22T03:01:41;18.80;99.90
9527;DHT22;4802;51.494;6.770;2022-07-22T03:04:10;18.90;99.90
9527;DHT22;4802;51.494;6.770;2022-07-22T03:06:40;18.90;99.90
9527;DHT22;4802;51.494;6.770;2022-07-22T03:09:09;18.90;99.90
9527;DHT22;4802;51.494;6.770;2022-07-22T03:11:38;18.90;99.90
9527;DHT22;4802;51.494;6.770;2022-07-22T03:14:07;18.90;99.90
9527;DHT22;4802;51.494;6.770;2022-07-22T03:16:35;18.90;99.90
9527;DHT22;4802;51.494;6.770;2022-07-22T03:19:06;18.80;99.90
9527;DHT22;4802;51.494;6.770;2022-07-22T03:21:42;18.70;99.90
9527;DHT22;4802;51.494;6.770;2022-07-22T03:24:14;18.60;99.90
9527;DHT22;4802;51.494;6.770;2022-07-22T03:26:49;18.70;99.90
9527;DHT22;4802;51.494;6.770;2022-07-22T03:29:25;18.50;99.90
9527;DHT22;4802;51.494;6.770;2022-07-22T03:31:56;18.50;99.90
9527;DHT22;4802;51.494;6.770;2022-07-22T03:34:29;18.50;99.90
9527;DHT22;4802;51.494;6.770;2022-07-22T03:36:59;18.30;99.90
9527;DHT22;4802;51.494;6.770;2022-07-22T03:39:28;18.50;99.90
9527;DHT22;4802;51.494;6.770;2022-07-22T03:41:58;18.50;99.90
9527;DHT22;4802;51.494;6.770;2022-07-22T03:44:27;18.60;99.90
9527;DHT22;4802;51.494;6.770;2022-07-22T03:46:56;18.60;99.90
9527;DHT22;4802;51.494;6.770;2022-07-22T03:49:25;18.60;99.90
9527;DHT22;4802;51.494;6.770;2022-07-22T03:51:56;18.60;99.90
9527;DHT22;4802;51.494;6.770;2022-07-22T03:54:25;18.70;99.90
9527;DHT22;4802;51.494;6.770;2022-07-22T03:56:54;18.80;99.90
9527;DHT22;4802;51.494;6.770;2022-07-22T03:59:23;18.80;99.90
9527;DHT22;4802;51.494;6.770;2022-07-22T04:01:52;18.80;99.90
9527;DHT22;4802;51.494;6.770;2022-07-22T04:04:21;18.80;99.90
9527;DHT22;4802;51.494;6.770;2022-07-22T04:06:49;18.80;99.90
9527;DHT22;4802;51.494;6.770;2022-07-22T04:09:20;18.90;99.90
9527;DHT22;4802;51.494;6.770;2022-07-22T04:11:49;19.00;99.90
9527;DHT22;4802;51.494;6.770;2022-07-22T04:14:19;19.10;99.90
9527;DHT22;4802;51.494;6.770;2022-07-22T04:16:48;19.10;99.90
9527;DHT22;4802;51.494;6.770;2022-07-22T04:19:17;19.00;99.90
9527;DHT22;4802;51.494;6.770;2022-07-22T04:21:46;19.10;99.90
9527;DHT22;4802;51.494;6.770;2022-07-22T04:24:14;19.10;99.90
9527;DHT22;4802;51.494;6.770;2022-07-22T04:26:45;19.00;99.90
9527;DHT22;4802;51.494;6.770;2022-07-22T04:29:14;19.10;99.90
9527;DHT22;4802;51.494;6.770;2022-07-22T04:31:43;19.10;99.90
9527;DHT22;4802;51.494;6.770;2022-07-22T04:34:12;19.00;99.90
9527;DHT22;4802;51.494;6.770;2022-07-22T04:36:41;19.00;99.90
9527;DHT22;4802;51.494;6.770;2022-07-22T04:39:10;18.90;99.90
9527;DHT22;4802;51.494;6.770;2022-07-22T04:41:38;19.50;99.90
9527;DHT22;4802;51.494;6.770;2022-07-22T04:44:10;19.10;99.90
9527;DHT22;4802;51.494;6.770;2022-07-22T04:46:39;19.00;99.90
9527;DHT22;4802;51.494;6.770;2022-07-22T04:49:08;19.10;99.90
9527;DHT22;4802;51.494;6.770;2022-07-22T04:51:37;19.10;99.90
9527;DHT22;4802;51.494;6.770;2022-07-22T04:54:06;19.20;99.90
9527;DHT22;4802;51.494;6.770;2022-07-22T04:56:35;19.40;89.80
9527;DHT22;4802;51.494;6.770;2022-07-22T04:59:05;19.30;99.90
9527;DHT22;4802;51.494;6.770;2022-07-22T05:01:35;19.30;99.90
9527;DHT22;4802;51.494;6.770;2022-07-22T05:04:06;19.20;91.30
9527;DHT22;4802;51.494;6.770;2022-07-22T05:06:35;19.20;99.90
9527;DHT22;4802;51.494;6.770;2022-07-22T05:09:04;19.20;85.20
9527;DHT22;4802;51.494;6.770;2022-07-22T05:11:33;19.30;95.70
9527;DHT22;4802;51.494;6.770;2022-07-22T05:14:02;19.50;13.40
9527;DHT22;4802;51.494;6.770;2022-07-22T05:19:22;19.40;14.80
9527;DHT22;4802;51.494;6.770;2022-07-22T05:21:57;19.30;31.40
9527;DHT22;4802;51.494;6.770;2022-07-22T05:24:27;19.30;27.40
9527;DHT22;4802;51.494;6.770;2022-07-22T05:26:59;19.30;16.70
9527;DHT22;4802;51.494;6.770;2022-07-22T05:29:29;18.90;90.90
9527;DHT22;4802;51.494;6.770;2022-07-22T05:32:06;18.70;99.90
9527;DHT22;4802;51.494;6.770;2022-07-22T05:34:37;18.50;99.90
9527;DHT22;4802;51.494;6.770;2022-07-22T05:37:06;18.30;99.90
9527;DHT22;4802;51.494;6.770;2022-07-22T05:39:35;18.20;99.90
9527;DHT22;4802;51.494;6.770;2022-07-22T05:42:07;18.20;99.90
9527;DHT22;4802;51.494;6.770;2022-07-22T05:44:36;18.10;99.90
9527;DHT22;4802;51.494;6.770;2022-07-22T05:47:06;18.10;99.90
9527;DHT22;4802;51.494;6.770;2022-07-22T05:50:07;17.80;99.90
9527;DHT22;4802;51.494;6.770;2022-07-22T05:52:53;18.00;99.90
9527;DHT22;4802;51.494;6.770;2022-07-22T05:55:37;17.90;99.90
9527;DHT22;4802;51.494;6.770;2022-07-22T05:58:06;18.00;99.90
9527;DHT22;4802;51.494;6.770;2022-07-22T06:00:36;18.00;99.90
9527;DHT22;4802;51.494;6.770;2022-07-22T06:03:43;18.00;99.90
9527;DHT22;4802;51.494;6.770;2022-07-22T06:10:08;18.10;99.90
9527;DHT22;4802;51.494;6.770;2022-07-22T06:12:49;18.00;99.90
9527;DHT22;4802;51.494;6.770;2022-07-22T06:15:32;18.10;99.90
9527;DHT22;4802;51.494;6.770;2022-07-22T06:18:27;18.10;99.90
9527;DHT22;4802;51.494;6.770;2022-07-22T06:21:14;17.70;99.90
9527;DHT22;4802;51.494;6.770;2022-07-22T06:24:14;17.90;99.90
9527;DHT22;4802;51.494;6.770;2022-07-22T06:27:26;18.00;99.90
9527;DHT22;4802;51.494;6.770;2022-07-22T06:30:16;17.90;99.90
9527;DHT22;4802;51.494;6.770;2022-07-22T06:33:05;18.00;99.90
9527;DHT22;4802;51.494;6.770;2022-07-22T06:35:38;18.00;99.90
9527;DHT22;4802;51.494;6.770;2022-07-22T06:38:23;18.10;99.90
9527;DHT22;4802;51.494;6.770;2022-07-22T06:41:10;18.10;99.90
9527;DHT22;4802;51.494;6.770;2022-07-22T06:44:23;18.10;99.90
9527;DHT22;4802;51.494;6.770;2022-07-22T06:47:15;18.10;99.90
9527;DHT22;4802;51.494;6.770;2022-07-22T06:50:24;18.20;99.90
9527;DHT22;4802;51.494;6.770;2022-07-22T06:52:59;18.10;99.90
9527;DHT22;4802;51.494;6.770;2022-07-22T06:55:58;18.10;99.90
9527;DHT22;4802;51.494;6.770;2022-07-22T06:58:57;18.10;99.90
9527;DHT22;4802;51.494;6.770;2022-07-22T07:01:58;18.20;99.90
9527;DHT22;4802;51.494;6.770;2022-07-22T07:04:49;18.20;99.90
9527;DHT22;4802;51.494;6.770;2022-07-22T07:07:37;18.20;99.90
9527;DHT22;4802;51.494;6.770;2022-07-22T07:10:34;18.20;99.90
9527;DHT22;4802;51.494;6.770;2022-07-22T07:13:32;18.10;99.90
9527;DHT22;4802;51.494;6.770;2022-07-22T07:16:29;17.90;99.90
9527;DHT22;4802;51.494;6.770;2022-07-22T07:19:11;18.20;99.90
9527;DHT22;4802;51.494;6.770;2022-07-22T07:22:02;18.20;99.90
9527;DHT22;4802;51.494;6.770;2022-07-22T07:25:02;18.20;99.90
9527;DHT22;4802;51.494;6.770;2022-07-22T07:27:50;18.10;99.90
9527;DHT22;4802;51.494;6.770;2022-07-22T07:30:23;18.30;99.90
9527;DHT22;4802;51.494;6.770;2022-07-22T07:33:00;18.20;99.90
9527;DHT22;4802;51.494;6.770;2022-07-22T07:35:31;17.80;99.90
9527;DHT22;4802;51.494;6.770;2022-07-22T07:38:02;18.10;99.90
9527;DHT22;4802;51.494;6.770;2022-07-22T07:40:32;18.50;99.90
9527;DHT22;4802;51.494;6.770;2022-07-22T07:43:04;18.20;99.90
9527;DHT22;4802;51.494;6.770;2022-07-22T07:45:56;18.40;99.90
9527;DHT22;4802;51.494;6.770;2022-07-22T07:48:45;18.30;99.90
9527;DHT22;4802;51.494;6.770;2022-07-22T07:52:03;18.30;99.90
9527;DHT22;4802;51.494;6.770;2022-07-22T07:54:41;18.40;99.90
9527;DHT22;4802;51.494;6.770;2022-07-22T07:57:37;18.40;94.60
9527;DHT22;4802;51.494;6.770;2022-07-22T08:00:35;18.40;99.90
9527;DHT22;4802;51.494;6.770;2022-07-22T08:03:22;18.50;99.90
9527;DHT22;4802;51.494;6.770;2022-07-22T08:06:09;18.30;99.90
9527;DHT22;4802;51.494;6.770;2022-07-22T08:09:31;18.60;99.90
9527;DHT22;4802;51.494;6.770;2022-07-22T08:12:07;18.60;99.90
9527;DHT22;4802;51.494;6.770;2022-07-22T08:14:58;18.60;72.80
9527;DHT22;4802;51.494;6.770;2022-07-22T08:17:56;18.60;35.20
9527;DHT22;4802;51.494;6.770;2022-07-22T08:20:42;18.60;99.40
9527;DHT22;4802;51.494;6.770;2022-07-22T08:23:23;18.70;59.50
9527;DHT22;4802;51.494;6.770;2022-07-22T08:25:59;18.70;24.10
9527;DHT22;4802;51.494;6.770;2022-07-22T08:28:28;18.60;79.40
9527;DHT22;4802;51.494;6.770;2022-07-22T08:30:57;18.70;57.30
9527;DHT22;4802;51.494;6.770;2022-07-22T08:33:32;18.80;41.50
9527;DHT22;4802;51.494;6.770;2022-07-22T08:36:03;18.90;49.20
9527;DHT22;4802;51.494;6.770;2022-07-22T08:38:32;19.00;6.50
9527;DHT22;4802;51.494;6.770;2022-07-22T08:41:03;19.00;1.00
9527;DHT22;4802;51.494;6.770;2022-07-22T08:43:35;19.10;1.00
9527;DHT22;4802;51.494;6.770;2022-07-22T08:46:07;19.20;1.00
9527;DHT22;4802;51.494;6.770;2022-07-22T08:48:36;19.20;1.00
9527;DHT22;4802;51.494;6.770;2022-07-22T08:51:06;19.40;1.00
9527;DHT22;4802;51.494;6.770;2022-07-22T08:53:37;19.20;1.00
9527;DHT22;4802;51.494;6.770;2022-07-22T08:56:10;19.30;1.00
9527;DHT22;4802;51.494;6.770;2022-07-22T08:58:52;19.00;1.00
9527;DHT22;4802;51.494;6.770;2022-07-22T09:01:30;19.50;1.00
9527;DHT22;4802;51.494;6.770;2022-07-22T09:03:59;19.80;1.00
9527;DHT22;4802;51.494;6.770;2022-07-22T09:06:30;19.70;1.00
9527;DHT22;4802;51.494;6.770;2022-07-22T09:09:02;19.80;1.00
9527;DHT22;4802;51.494;6.770;2022-07-22T09:11:40;19.90;1.00
9527;DHT22;4802;51.494;6.770;2022-07-22T09:14:12;20.00;1.00
9527;DHT22;4802;51.494;6.770;2022-07-22T09:16:46;19.90;1.00
9527;DHT22;4802;51.494;6.770;2022-07-22T09:19:31;19.70;1.00
9527;DHT22;4802;51.494;6.770;2022-07-22T09:22:00;19.50;1.00
9527;DHT22;4802;51.494;6.770;2022-07-22T09:24:33;19.40;1.00
9527;DHT22;4802;51.494;6.770;2022-07-22T09:27:31;19.30;1.00
9527;DHT22;4802;51.494;6.770;2022-07-22T09:30:02;19.20;1.00
9527;DHT22;4802;51.494;6.770;2022-07-22T09:32:40;19.20;1.00
9527;DHT22;4802;51.494;6.770;2022-07-22T09:35:11;19.30;1.00
9527;DHT22;4802;51.494;6.770;2022-07-22T09:37:53;19.30;1.00
9527;DHT22;4802;51.494;6.770;2022-07-22T09:40:35;19.40;1.00
9527;DHT22;4802;51.494;6.770;2022-07-22T09:43:09;19.40;1.00
9527;DHT22;4802;51.494;6.770;2022-07-22T09:45:46;19.30;1.00
9527;DHT22;4802;51.494;6.770;2022-07-22T09:48:24;19.30;1.00
9527;DHT22;4802;51.494;6.770;2022-07-22T09:51:10;19.30;1.00
9527;DHT22;4802;51.494;6.770;2022-07-22T09:53:56;19.40;1.00
9527;DHT22;4802;51.494;6.770;2022-07-22T09:56:30;19.40;1.00
9527;DHT22;4802;51.494;6.770;2022-07-22T09:59:05;19.50;1.00
9527;DHT22;4802;51.494;6.770;2022-07-22T10:01:35;19.50;1.00
9527;DHT22;4802;51.494;6.770;2022-07-22T10:04:24;19.40;1.00
9527;DHT22;4802;51.494;6.770;2022-07-22T10:07:12;19.60;1.00
9527;DHT22;4802;51.494;6.770;2022-07-22T10:09:57;19.70;1.00
9527;DHT22;4802;51.494;6.770;2022-07-22T10:12:44;19.90;1.00
9527;DHT22;4802;51.494;6.770;2022-07-22T10:15:18;20.00;1.00
9527;DHT22;4802;51.494;6.770;2022-07-22T10:17:49;20.10;1.00
9527;DHT22;4802;51.494;6.770;2022-07-22T10:20:21;20.30;1.00
9527;DHT22;4802;51.494;6.770;2022-07-22T10:22:53;20.60;1.00
9527;DHT22;4802;51.494;6.770;2022-07-22T10:25:29;20.90;1.00
9527;DHT22;4802;51.494;6.770;2022-07-22T10:28:02;21.40;1.00
9527;DHT22;4802;51.494;6.770;2022-07-22T10:30:36;21.70;1.00
9527;DHT22;4802;51.494;6.770;2022-07-22T10:33:07;22.00;1.00
9527;DHT22;4802;51.494;6.770;2022-07-22T10:35:45;22.10;1.00
9527;DHT22;4802;51.494;6.770;2022-07-22T10:38:21;22.20;1.00
9527;DHT22;4802;51.494;6.770;2022-07-22T10:40:54;22.30;1.00
9527;DHT22;4802;51.494;6.770;2022-07-22T10:43:24;22.60;1.00
9527;DHT22;4802;51.494;6.770;2022-07-22T10:46:00;22.80;1.00
9527;DHT22;4802;51.494;6.770;2022-07-22T10:48:45;23.00;1.00
9527;DHT22;4802;51.494;6.770;2022-07-22T10:51:17;23.50;1.00
9527;DHT22;4802;51.494;6.770;2022-07-22T10:53:54;23.60;1.00
9527;DHT22;4802;51.494;6.770;2022-07-22T10:56:26;23.70;1.00
9527;DHT22;4802;51.494;6.770;2022-07-22T10:58:59;23.60;1.00
9527;DHT22;4802;51.494;6.770;2022-07-22T11:01:39;23.50;1.00
9527;DHT22;4802;51.494;6.770;2022-07-22T11:04:13;23.50;1.00
9527;DHT22;4802;51.494;6.770;2022-07-22T11:06:46;23.70;1.00
9527;DHT22;4802;51.494;6.770;2022-07-22T11:09:16;23.40;1.00
9527;DHT22;4802;51.494;6.770;2022-07-22T11:11:49;23.60;1.00
9527;DHT22;4802;51.494;6.770;2022-07-22T11:14:22;24.10;1.00
9527;DHT22;4802;51.494;6.770;2022-07-22T11:16:59;24.30;1.00
9527;DHT22;4802;51.494;6.770;2022-07-22T11:19:30;24.20;1.00
9527;DHT22;4802;51.494;6.770;2022-07-22T11:22:02;24.20;1.00
9527;DHT22;4802;51.494;6.770;2022-07-22T11:24:32;24.40;1.00
9527;DHT22;4802;51.494;6.770;2022-07-22T11:27:03;24.30;1.00
9527;DHT22;4802;51.494;6.770;2022-07-22T11:29:35;24.80;1.00
9527;DHT22;4802;51.494;6.770;2022-07-22T11:32:10;25.20;1.00
9527;DHT22;4802;51.494;6.770;2022-07-22T11:34:41;25.50;1.00
9527;DHT22;4802;51.494;6.770;2022-07-22T11:37:14;25.90;1.00
9527;DHT22;4802;51.494;6.770;2022-07-22T11:39:44;25.80;1.00
9527;DHT22;4802;51.494;6.770;2022-07-22T11:42:14;25.60;1.00
9527;DHT22;4802;51.494;6.770;2022-07-22T11:44:44;25.30;1.00
9527;DHT22;4802;51.494;6.770;2022-07-22T11:47:20;24.70;1.00
9527;DHT22;4802;51.494;6.770;2022-07-22T11:49:50;24.40;1.00
9527;DHT22;4802;51.494;6.770;2022-07-22T11:52:20;24.10;1.00
9527;DHT22;4802;51.494;6.770;2022-07-22T11:54:49;23.90;1.00
9527;DHT22;4802;51.494;6.770;2022-07-22T11:57:21;23.80;1.00
9527;DHT22;4802;51.494;6.770;2022-07-22T11:59:53;23.50;1.00
9527;DHT22;4802;51.494;6.770;2022-07-22T12:02:27;23.30;1.00
9527;DHT22;4802;51.494;6.770;2022-07-22T12:05:05;23.40;1.00
9527;DHT22;4802;51.494;6.770;2022-07-22T12:07:54;23.40;1.00
9527;DHT22;4802;51.494;6.770;2022-07-22T12:10:25;23.50;1.00
9527;DHT22;4802;51.494;6.770;2022-07-22T12:12:55;23.50;1.00
9527;DHT22;4802;51.494;6.770;2022-07-22T12:15:25;23.40;1.00
9527;DHT22;4802;51.494;6.770;2022-07-22T12:18:23;23.30;1.00
9527;DHT22;4802;51.494;6.770;2022-07-22T12:20:53;23.60;1.00
9527;DHT22;4802;51.494;6.770;2022-07-22T12:23:26;23.60;1.00
9527;DHT22;4802;51.494;6.770;2022-07-22T12:25:59;23.80;1.00
9527;DHT22;4802;51.494;6.770;2022-07-22T12:28:31;24.20;1.00
9527;DHT22;4802;51.494;6.770;2022-07-22T12:31:02;24.20;1.00
9527;DHT22;4802;51.494;6.770;2022-07-22T12:33:34;24.20;1.00
9527;DHT22;4802;51.494;6.770;2022-07-22T12:36:05;24.10;1.00
9527;DHT22;4802;51.494;6.770;2022-07-22T12:38:38;24.10;1.00
9527;DHT22;4802;51.494;6.770;2022-07-22T12:41:24;24.10;1.00
9527;DHT22;4802;51.494;6.770;2022-07-22T12:43:55;24.20;1.00
9527;DHT22;4802;51.494;6.770;2022-07-22T12:46:25;24.20;1.00
9527;DHT22;4802;51.494;6.770;2022-07-22T12:48:56;24.30;1.00
9527;DHT22;4802;51.494;6.770;2022-07-22T12:51:28;24.30;1.00
9527;DHT22;4802;51.494;6.770;2022-07-22T12:53:58;24.30;1.00
9527;DHT22;4802;51.494;6.770;2022-07-22T12:56:30;24.10;1.00
9527;DHT22;4802;51.494;6.770;2022-07-22T12:59:03;24.10;1.00
9527;DHT22;4802;51.494;6.770;2022-07-22T13:01:33;24.10;1.00
9527;DHT22;4802;51.494;6.770;2022-07-22T13:04:06;24.00;1.00
9527;DHT22;4802;51.494;6.770;2022-07-22T13:06:35;24.00;1.00
9527;DHT22;4802;51.494;6.770;2022-07-22T13:09:06;24.00;1.00
9527;DHT22;4802;51.494;6.770;2022-07-22T13:11:44;23.90;1.00
9527;DHT22;4802;51.494;6.770;2022-07-22T13:14:15;24.00;1.00
9527;DHT22;4802;51.494;6.770;2022-07-22T13:16:45;24.20;1.00
9527;DHT22;4802;51.494;6.770;2022-07-22T13:19:16;24.30;1.00
9527;DHT22;4802;51.494;6.770;2022-07-22T13:21:45;24.40;1.00
9527;DHT22;4802;51.494;6.770;2022-07-22T13:24:15;24.70;1.00
9527;DHT22;4802;51.494;6.770;2022-07-22T13:26:45;24.80;1.00
9527;DHT22;4802;51.494;6.770;2022-07-22T13:29:16;24.80;1.00
9527;DHT22;4802;51.494;6.770;2022-07-22T13:31:49;24.80;1.00
9527;DHT22;4802;51.494;6.770;2022-07-22T13:34:40;24.80;1.00
9527;DHT22;4802;51.494;6.770;2022-07-22T13:37:13;24.70;1.00
9527;DHT22;4802;51.494;6.770;2022-07-22T13:40:00;24.80;1.00
9527;DHT22;4802;51.494;6.770;2022-07-22T13:42:29;24.80;1.00
9527;DHT22;4802;51.494;6.770;2022-07-22T13:45:00;24.70;1.00
9527;DHT22;4802;51.494;6.770;2022-07-22T13:47:35;24.70;1.00
9527;DHT22;4802;51.494;6.770;2022-07-22T13:50:10;24.60;1.00
9527;DHT22;4802;51.494;6.770;2022-07-22T13:52:40;24.50;1.00
9527;DHT22;4802;51.494;6.770;2022-07-22T13:55:10;24.50;1.00
9527;DHT22;4802;51.494;6.770;2022-07-22T13:57:54;24.40;1.00
9527;DHT22;4802;51.494;6.770;2022-07-22T14:00:40;24.40;1.00
9527;DHT22;4802;51.494;6.770;2022-07-22T14:03:10;24.60;1.00
9527;DHT22;4802;51.494;6.770;2022-07-22T14:05:41;24.50;1.00
9527;DHT22;4802;51.494;6.770;2022-07-22T14:08:14;24.60;1.00
9527;DHT22;4802;51.494;6.770;2022-07-22T14:10:44;24.60;1.00
9527;DHT22;4802;51.494;6.770;2022-07-22T14:13:16;24.50;1.00
9527;DHT22;4802;51.494;6.770;2022-07-22T14:15:47;24.40;1.00
9527;DHT22;4802;51.494;6.770;2022-07-22T14:18:18;24.40;1.00
9527;DHT22;4802;51.494;6.770;2022-07-22T14:20:50;24.20;1.00
9527;DHT22;4802;51.494;6.770;2022-07-22T14:23:20;24.40;1.00
9527;DHT22;4802;51.494;6.770;2022-07-22T14:25:50;24.60;1.00
9527;DHT22;4802;51.494;6.770;2022-07-22T14:28:21;24.70;1.00
9527;DHT22;4802;51.494;6.770;2022-07-22T14:31:02;24.80;1.00
9527;DHT22;4802;51.494;6.770;2022-07-22T14:33:31;24.60;1.00
9527;DHT22;4802;51.494;6.770;2022-07-22T14:36:07;24.80;1.00
9527;DHT22;4802;51.494;6.770;2022-07-22T14:38:37;24.70;1.00
9527;DHT22;4802;51.494;6.770;2022-07-22T14:41:06;24.60;1.00
9527;DHT22;4802;51.494;6.770;2022-07-22T14:43:37;24.50;1.00
9527;DHT22;4802;51.494;6.770;2022-07-22T14:46:12;24.80;1.00
9527;DHT22;4802;51.494;6.770;2022-07-22T14:48:45;24.80;1.00
9527;DHT22;4802;51.494;6.770;2022-07-22T14:51:18;24.90;1.00
9527;DHT22;4802;51.494;6.770;2022-07-22T14:53:49;24.90;1.00
9527;DHT22;4802;51.494;6.770;2022-07-22T14:56:19;24.80;1.00
9527;DHT22;4802;51.494;6.770;2022-07-22T14:58:49;24.70;1.00
9527;DHT22;4802;51.494;6.770;2022-07-22T15:01:19;24.80;1.00
9527;DHT22;4802;51.494;6.770;2022-07-22T15:03:54;24.80;1.00
9527;DHT22;4802;51.494;6.770;2022-07-22T15:06:28;24.80;1.00
9527;DHT22;4802;51.494;6.770;2022-07-22T15:08:57;25.10;1.00
9527;DHT22;4802;51.494;6.770;2022-07-22T15:11:28;25.60;1.00
9527;DHT22;4802;51.494;6.770;2022-07-22T15:14:15;25.00;1.00
9527;DHT22;4802;51.494;6.770;2022-07-22T15:16:51;24.80;1.00
9527;DHT22;4802;51.494;6.770;2022-07-22T15:19:22;24.80;1.00
9527;DHT22;4802;51.494;6.770;2022-07-22T15:21:56;24.90;1.00
9527;DHT22;4802;51.494;6.770;2022-07-22T15:24:26;25.10;1.00
9527;DHT22;4802;51.494;6.770;2022-07-22T15:27:02;25.10;1.00
9527;DHT22;4802;51.494;6.770;2022-07-22T15:29:31;24.80;1.00
9527;DHT22;4802;51.494;6.770;2022-07-22T15:32:16;24.60;1.00
9527;DHT22;4802;51.494;6.770;2022-07-22T15:34:52;24.60;1.00
9527;DHT22;4802;51.494;6.770;2022-07-22T15:37:26;24.60;1.00
9527;DHT22;4802;51.494;6.770;2022-07-22T15:39:59;24.50;1.00
9527;DHT22;4802;51.494;6.770;2022-07-22T15:42:33;24.20;1.00
9527;DHT22;4802;51.494;6.770;2022-07-22T15:45:04;24.30;1.00
9527;DHT22;4802;51.494;6.770;2022-07-22T15:47:34;24.40;1.00
9527;DHT22;4802;51.494;6.770;2022-07-22T15:50:04;24.40;1.00
9527;DHT22;4802;51.494;6.770;2022-07-22T15:52:35;24.40;1.00
9527;DHT22;4802;51.494;6.770;2022-07-22T15:55:06;24.50;1.00
9527;DHT22;4802;51.494;6.770;2022-07-22T15:57:36;24.80;1.00
9527;DHT22;4802;51.494;6.770;2022-07-22T16:00:22;24.80;1.00
9527;DHT22;4802;51.494;6.770;2022-07-22T16:02:52;24.90;1.00
9527;DHT22;4802;51.494;6.770;2022-07-22T16:05:22;25.10;1.00
9527;DHT22;4802;51.494;6.770;2022-07-22T16:07:53;25.20;1.00
9527;DHT22;4802;51.494;6.770;2022-07-22T16:10:24;25.20;1.00
9527;DHT22;4802;51.494;6.770;2022-07-22T16:12:53;25.30;1.00
9527;DHT22;4802;51.494;6.770;2022-07-22T16:15:24;25.20;1.00
9527;DHT22;4802;51.494;6.770;2022-07-22T16:17:53;25.00;1.00
9527;DHT22;4802;51.494;6.770;2022-07-22T16:20:22;25.10;1.00
9527;DHT22;4802;51.494;6.770;2022-07-22T16:22:53;25.60;1.00
9527;DHT22;4802;51.494;6.770;2022-07-22T16:25:24;24.80;1.00
9527;DHT22;4802;51.494;6.770;2022-07-22T16:27:53;24.30;1.00
9527;DHT22;4802;51.494;6.770;2022-07-22T16:30:22;24.20;1.00
9527;DHT22;4802;51.494;6.770;2022-07-22T16:32:52;24.00;1.00
9527;DHT22;4802;51.494;6.770;2022-07-22T16:35:32;23.90;1.00
9527;DHT22;4802;51.494;6.770;2022-07-22T16:38:03;23.80;1.00
9527;DHT22;4802;51.494;6.770;2022-07-22T16:40:32;23.60;1.00
9527;DHT22;4802;51.494;6.770;2022-07-22T16:43:02;23.80;1.00
9527;DHT22;4802;51.494;6.770;2022-07-22T16:45:33;23.60;1.00
9527;DHT22;4802;51.494;6.770;2022-07-22T16:48:02;23.60;1.00
9527;DHT22;4802;51.494;6.770;2022-07-22T16:50:31;23.50;1.00
9527;DHT22;4802;51.494;6.770;2022-07-22T16:53:02;23.50;1.00
9527;DHT22;4802;51.494;6.770;2022-07-22T16:55:31;23.40;1.00
9527;DHT22;4802;51.494;6.770;2022-07-22T16:58:01;23.40;1.00
9527;DHT22;4802;51.494;6.770;2022-07-22T17:00:30;23.30;1.00
9527;DHT22;4802;51.494;6.770;2022-07-22T17:02:59;23.30;1.00